Time;durP1;ratioP1;P1;durP2;ratioP2;P2;SDS_P1;SDS_P2;PMS_P1;PMS_P2;Temp;Humidity;BMP_temperature;BMP_pressure;BME280_temperature;BME280_humidity;BME280_pressure;Samples;Min_cycle;Max_cycle;Signal;HPM_P1;HPM_P2
2021/08/25 00:00:48;;;;;;;;;;;;;;;;;;;;;
2021/08/25 00:03:33;;;;;;;0.10;0.10;;;;;;;17.23;51.56;101570.84;4982781;28;20098;-76
2021/08/25 00:06:37;;;;;;;;;;;;;;;;;;;;;
2021/08/25 00:13:02;;;;;;;;;;;;;;;;;;;;;
2021/08/25 00:16:12;;;;;;;0.28;0.20;;;;;;;16.90;52.50;101537.25;5005941;28;20128;-75
2021/08/25 00:25:56;;;;;;;;;;;;;;;;;;;;;
2021/08/25 00:28:34;;;;;;;0.25;0.10;;;;;;;16.67;55.09;101543.34;4904231;29;20046;-77
2021/08/25 00:35:04;;;;;;;0.20;0.20;;;;;;;16.66;55.75;101552.75;4940688;29;20039;-76
2021/08/25 00:44:29;;;;;;;;;;;;;;;;;;;;;
2021/08/25 00:50:32;;;;;;;0.13;0.10;;;;;;;16.11;57.81;101511.97;4938364;29;20086;-75
2021/08/25 00:53:06;;;;;;;0.22;0.20;;;;;;;16.12;58.40;101519.16;5001420;28;20038;-81
2021/08/25 00:56:05;;;;;;;;;;;;;;;;;;;;;
2021/08/25 00:59:15;;;;;;;0.55;0.30;;;;;;;16.10;59.01;101523.28;5021938;28;20061;-80
2021/08/25 01:02:31;;;;;;;0.20;0.20;;;;;;;16.01;59.22;101523.03;5002074;28;20148;-79
2021/08/25 01:05:00;;;;;;;0.40;0.25;;;;;;;15.85;59.65;101502.88;5011729;28;20054;-79
2021/08/25 01:07:50;;;;;;;0.20;0.20;;;;;;;15.81;59.45;101510.88;5025382;28;20041;-78
2021/08/25 01:10:32;;;;;;;0.20;0.20;;;;;;;15.82;59.85;101509.75;5309385;23;20970;-78
2021/08/25 01:13:12;;;;;;;0.30;0.30;;;;;;;15.78;59.90;101514.16;5041827;28;20021;-79
2021/08/25 01:15:42;;;;;;;0.55;0.30;;;;;;;15.72;60.52;101498.69;5027598;28;20036;-83
2021/08/25 01:18:23;;;;;;;0.35;0.17;;;;;;;15.82;60.33;101520.78;5029500;28;20030;-83
2021/08/25 01:20:51;;;;;;;0.13;0.10;;;;;;;15.82;60.85;101523.56;5025526;28;20049;-84
2021/08/25 01:23:30;;;;;;;;;;;;;;;;;;;;;
2021/08/25 01:25:59;;;;;;;0.45;0.32;;;;;;;15.77;61.40;101517.16;5026218;28;20105;-78
2021/08/25 01:28:38;;;;;;;0.55;0.10;;;;;;;15.64;60.58;101491.81;5021160;28;20084;-78
2021/08/25 01:31:05;;;;;;;0.20;0.20;;;;;;;15.59;61.17;101489.03;5023235;28;20018;-78
2021/08/25 01:33:30;;;;;;;0.50;0.28;;;;;;;15.52;61.23;101483.81;5019940;28;20046;-78
2021/08/25 01:39:45;;;;;;;0.10;0.10;;;;;;;15.60;60.90;101495.38;5017752;28;20022;-76
2021/08/25 01:42:13;;;;;;;0.10;0.10;;;;;;;15.40;61.41;101469.44;4998556;28;20056;-79
2021/08/25 01:45:33;;;;;;;0.10;0.10;;;;;;;15.56;60.76;101486.00;5006987;28;20048;-76
2021/08/25 01:48:01;;;;;;;0.15;0.15;;;;;;;15.42;61.10;101483.78;5016755;28;20014;-75
2021/08/25 01:50:27;;;;;;;0.17;0.17;;;;;;;15.37;61.22;101481.00;5019846;28;20045;-74
2021/08/25 01:52:52;;;;;;;0.10;0.10;;;;;;;15.33;61.20;101479.88;5015273;28;20037;-74
2021/08/25 01:55:18;;;;;;;0.10;0.10;;;;;;;15.31;61.31;101484.84;5017372;28;20065;-74
2021/08/25 01:57:46;;;;;;;0.20;0.10;;;;;;;15.21;61.92;101468.31;5002805;28;20061;-76
2021/08/25 02:00:12;;;;;;;0.32;0.20;;;;;;;15.16;61.84;101467.19;5020879;28;20030;-76
2021/08/25 02:02:38;;;;;;;0.05;0.05;;;;;;;15.20;61.71;101475.75;5012178;28;20472;-73
2021/08/25 02:05:50;;;;;;;0.32;0.25;;;;;;;15.18;62.42;101472.41;5034039;28;20034;-75
2021/08/25 02:08:18;;;;;;;0.30;0.20;;;;;;;15.09;62.35;101474.88;5017815;28;20072;-76
2021/08/25 02:10:43;;;;;;;1.17;0.20;;;;;;;15.05;62.29;101473.75;5004472;28;20049;-74
2021/08/25 02:13:11;;;;;;;0.10;0.10;;;;;;;14.98;62.71;101478.69;5015967;28;20017;-75
2021/08/25 02:15:36;;;;;;;0.10;0.10;;;;;;;14.95;62.28;101468.22;5015902;28;20029;-74
2021/08/25 02:18:11;;;;;;;0.50;0.30;;;;;;;14.81;62.64;101459.66;5000722;28;20018;-75
2021/08/25 02:20:46;;;;;;;0.47;0.10;;;;;;;14.87;62.88;101458.56;5020108;28;20033;-77
2021/08/25 02:23:11;;;;;;;0.47;0.10;;;;;;;14.81;62.19;101446.69;5021062;28;20122;-78
2021/08/25 02:25:40;;;;;;;0.15;0.10;;;;;;;14.80;62.54;101442.28;5023614;28;20745;-78
2021/08/25 02:28:05;;;;;;;0.22;0.10;;;;;;;14.87;62.83;101443.97;5020024;28;20116;-79
2021/08/25 02:30:31;;;;;;;0.10;0.10;;;;;;;14.79;62.39;101448.91;5018112;28;20056;-77
2021/08/25 02:33:07;;;;;;;;;;;;;;;;;;;;;
2021/08/25 02:35:50;;;;;;;0.10;0.10;;;;;;;14.73;62.22;101438.94;5020740;28;20097;-79
2021/08/25 02:38:54;;;;;;;;;;;;;;;;;;;;;
2021/08/25 02:41:34;;;;;;;0.17;0.10;;;;;;;14.62;62.45;101424.31;5033641;28;20033;-77
2021/08/25 02:44:02;;;;;;;0.30;0.30;;;;;;;14.70;62.99;101445.00;5030669;28;20014;-78
2021/08/25 02:46:32;;;;;;;0.20;0.20;;;;;;;14.55;62.35;101414.63;5008068;28;20098;-76
2021/08/25 02:49:00;;;;;;;0.00;0.00;;;;;;;14.53;63.00;101419.56;5016174;28;20037;-76
2021/08/25 02:51:25;;;;;;;0.52;0.13;;;;;;;14.51;62.52;101416.25;5021837;28;20396;-77
2021/08/25 02:53:51;;;;;;;3.97;0.20;;;;;;;14.59;62.64;101426.75;5017525;28;20041;-77
2021/08/25 02:56:16;;;;;;;0.22;0.10;;;;;;;14.52;63.00;101418.75;5021727;28;20037;-76
2021/08/25 02:58:52;;;;;;;0.00;0.00;;;;;;;14.50;62.83;101418.19;5018609;28;20093;-76
2021/08/25 03:01:18;;;;;;;0.10;0.10;;;;;;;14.56;63.08;101432.78;5020659;28;20018;-77
2021/08/25 03:03:43;;;;;;;0.20;0.10;;;;;;;14.45;62.83;101413.47;5000789;28;20100;-76
2021/08/25 03:06:08;;;;;;;0.10;0.10;;;;;;;14.53;63.05;101438.81;5020203;28;20021;-77
2021/08/25 03:08:38;;;;;;;0.00;0.00;;;;;;;14.49;62.69;101430.28;5022136;28;20503;-78
2021/08/25 03:11:03;;;;;;;0.35;0.20;;;;;;;14.44;62.97;101430.25;5004678;28;20050;-76
2021/08/25 03:13:29;;;;;;;0.10;0.10;;;;;;;14.36;62.96;101428.84;5021771;28;20052;-77
2021/08/25 03:15:54;;;;;;;0.10;0.05;;;;;;;14.22;62.90;101417.50;4990894;28;20036;-78
2021/08/25 03:18:20;;;;;;;0.10;0.00;;;;;;;14.13;63.00;101408.94;5004741;28;20026;-77
2021/08/25 03:20:52;;;;;;;0.17;0.10;;;;;;;14.05;63.05;101392.91;5009383;28;20133;-77
2021/08/25 03:23:25;;;;;;;0.30;0.10;;;;;;;14.09;63.35;101413.28;5015141;28;20029;-78
2021/08/25 03:25:51;;;;;;;0.05;0.05;;;;;;;14.07;63.05;101415.47;5037756;28;20049;-78
2021/08/25 03:28:20;;;;;;;0.03;0.00;;;;;;;13.97;63.96;101404.41;5004687;28;20034;-77
2021/08/25 03:30:50;;;;;;;0.10;0.10;;;;;;;13.99;63.61;101413.22;5023527;28;20048;-78
2021/08/25 03:33:18;;;;;;;0.10;0.10;;;;;;;13.93;63.41;101420.63;5022206;28;20538;-79
2021/08/25 03:35:43;;;;;;;0.13;0.10;;;;;;;13.84;64.14;101411.19;5021517;28;20038;-77
2021/08/25 03:38:16;;;;;;;0.10;0.10;;;;;;;13.81;63.54;101413.66;5024397;28;20030;-77
2021/08/25 03:40:51;;;;;;;0.10;0.10;;;;;;;13.74;64.34;101400.97;5017874;28;20025;-75
2021/08/25 03:43:36;;;;;;;0.10;0.10;;;;;;;13.71;63.96;101396.00;5002116;28;20045;-76
2021/08/25 03:46:01;;;;;;;0.80;0.30;;;;;;;13.70;64.26;101399.81;5019449;28;20283;-77
2021/08/25 03:48:35;;;;;;;0.28;0.22;;;;;;;13.78;64.68;101407.59;5021984;28;20026;-78
2021/08/25 03:51:01;;;;;;;0.20;0.20;;;;;;;13.72;64.22;101389.38;5012020;28;20495;-78
2021/08/25 03:53:26;;;;;;;0.85;0.22;;;;;;;13.67;64.69;101378.38;5018630;28;20117;-77
2021/08/25 03:55:54;;;;;;;0.10;0.10;;;;;;;13.76;65.03;101396.00;5001294;28;20036;-76
2021/08/25 03:58:29;;;;;;;0.20;0.20;;;;;;;13.78;65.16;101395.75;5013526;28;20022;-76
2021/08/25 04:00:55;;;;;;;0.28;0.25;;;;;;;13.80;64.79;101399.09;5019080;28;20077;-77
2021/08/25 04:03:23;;;;;;;0.10;0.10;;;;;;;13.73;65.70;101379.22;5021634;28;20037;-77
2021/08/25 04:05:51;;;;;;;0.20;0.20;;;;;;;13.78;65.36;101393.84;5018904;28;20034;-76
2021/08/25 04:08:19;;;;;;;0.52;0.10;;;;;;;13.70;65.55;101377.84;5007674;28;20034;-76
2021/08/25 04:10:49;;;;;;;0.20;0.10;;;;;;;13.64;65.17;101373.41;5014403;28;20134;-76
2021/08/25 04:13:14;;;;;;;0.10;0.10;;;;;;;13.63;65.73;101377.22;5024966;28;20380;-77
2021/08/25 04:15:40;;;;;;;0.32;0.20;;;;;;;13.67;65.65;101389.34;5022744;28;20033;-78
2021/08/25 04:18:08;;;;;;;0.20;0.20;;;;;;;13.61;65.49;101390.41;5020852;28;20054;-77
2021/08/25 04:20:34;;;;;;;0.10;0.10;;;;;;;13.53;65.40;101375.22;5020556;28;20022;-78
2021/08/25 04:23:05;;;;;;;0.40;0.20;;;;;;;13.56;66.18;101387.63;4983744;28;20102;-77
2021/08/25 04:25:30;;;;;;;0.10;0.10;;;;;;;13.59;65.87;101400.81;5011467;28;20056;-76
2021/08/25 04:27:56;;;;;;;0.32;0.32;;;;;;;13.60;65.83;101402.50;5019096;28;20029;-78
2021/08/25 04:30:22;;;;;;;0.20;0.20;;;;;;;13.57;66.36;101392.84;5019526;28;20025;-78
2021/08/25 04:32:47;;;;;;;0.30;0.20;;;;;;;13.47;66.57;101373.53;5023733;28;20054;-77
2021/08/25 04:35:18;;;;;;;0.20;0.20;;;;;;;13.51;66.90;101382.09;4993029;28;20026;-77
2021/08/25 04:37:43;;;;;;;0.20;0.20;;;;;;;13.40;66.33;101373.78;5015364;28;20064;-75
2021/08/25 04:40:09;;;;;;;0.38;0.30;;;;;;;13.51;66.41;101384.84;5023559;28;20805;-76
2021/08/25 04:42:38;;;;;;;0.22;0.22;;;;;;;13.55;67.02;101391.44;5026741;28;20014;-75
2021/08/25 04:45:04;;;;;;;0.30;0.30;;;;;;;13.47;67.21;101372.72;5022699;28;20025;-76
2021/08/25 04:47:39;;;;;;;0.20;0.20;;;;;;;13.59;66.74;101392.59;4996868;28;20046;-75
2021/08/25 04:50:08;;;;;;;0.30;0.30;;;;;;;13.58;66.96;101386.28;5023753;28;20022;-78
2021/08/25 04:53:16;;;;;;;0.30;0.30;;;;;;;13.63;67.26;101387.41;5022688;28;20034;-76
2021/08/25 04:55:44;;;;;;;5.05;0.28;;;;;;;13.66;66.82;101393.19;5021277;28;20032;-76
2021/08/25 04:58:12;;;;;;;0.28;0.22;;;;;;;13.59;66.97;101376.09;5023183;28;20032;-77
2021/08/25 05:00:38;;;;;;;0.30;0.30;;;;;;;13.67;67.50;101386.63;5005988;28;20030;-77
2021/08/25 05:03:03;;;;;;;0.25;0.15;;;;;;;13.66;67.71;101381.38;5019484;28;20124;-77
2021/08/25 05:05:29;;;;;;;0.20;0.13;;;;;;;13.76;67.52;101398.75;5016335;28;20022;-76
2021/08/25 05:07:54;;;;;;;0.35;0.35;;;;;;;13.68;67.49;101391.03;5017448;28;20027;-75
2021/08/25 05:10:22;;;;;;;0.20;0.10;;;;;;;13.67;66.95;101392.09;5021589;28;20473;-74
2021/08/25 05:12:48;;;;;;;0.10;0.10;;;;;;;13.68;67.23;101385.53;5014158;28;20054;-75
2021/08/25 05:15:16;;;;;;;0.13;0.13;;;;;;;13.78;67.33;101401.25;5016949;28;20030;-76
2021/08/25 05:17:42;;;;;;;0.13;0.13;;;;;;;13.83;67.49;101408.69;5013385;28;20041;-74
2021/08/25 05:20:08;;;;;;;0.25;0.17;;;;;;;13.76;67.27;101393.25;5009933;28;20025;-74
2021/08/25 05:22:38;;;;;;;0.20;0.20;;;;;;;13.78;67.27;101402.09;5008022;28;20216;-74
2021/08/25 05:25:04;;;;;;;0.20;0.20;;;;;;;13.79;67.11;101409.22;5018545;28;20041;-74
2021/08/25 05:27:33;;;;;;;0.20;0.20;;;;;;;13.88;67.55;101417.00;5011965;28;20096;-75
2021/08/25 05:29:58;;;;;;;0.10;0.10;;;;;;;13.76;67.27;101398.75;5017880;28;20105;-74
2021/08/25 05:32:24;;;;;;;0.28;0.15;;;;;;;13.84;67.75;101415.84;5018988;28;20135;-75
2021/08/25 05:34:49;;;;;;;0.20;0.20;;;;;;;13.83;67.40;101425.19;5015356;28;20034;-76
2021/08/25 05:37:15;;;;;;;0.30;0.30;;;;;;;13.82;67.92;101423.56;5016879;28;20119;-75
2021/08/25 05:39:41;;;;;;;0.20;0.20;;;;;;;13.74;67.80;101411.09;5008979;28;20032;-73
2021/08/25 05:42:07;;;;;;;0.20;0.20;;;;;;;13.85;67.56;101420.28;5013713;28;20041;-73
2021/08/25 05:44:32;;;;;;;0.10;0.10;;;;;;;13.83;68.03;101417.78;5015526;28;20040;-75
2021/08/25 05:47:07;;;;;;;0.20;0.20;;;;;;;13.85;67.82;101414.78;5030887;28;20080;-74
2021/08/25 05:49:32;;;;;;;0.20;0.20;;;;;;;13.94;67.70;101424.19;5013876;28;20084;-76
2021/08/25 05:51:58;;;;;;;0.17;0.10;;;;;;;13.90;68.00;101409.28;5016648;28;20476;-76
2021/08/25 05:54:26;;;;;;;0.20;0.20;;;;;;;14.03;67.87;101430.00;5017682;28;20058;-76
2021/08/25 05:56:54;;;;;;;0.10;0.10;;;;;;;14.02;67.98;101412.69;5018096;28;20025;-76
2021/08/25 05:59:20;;;;;;;0.85;0.35;;;;;;;14.07;67.66;101411.91;5013802;28;20447;-76
2021/08/25 06:01:45;;;;;;;0.30;0.30;;;;;;;14.21;68.05;101420.53;4994237;28;20042;-76
2021/08/25 06:04:11;;;;;;;0.43;0.40;;;;;;;14.24;67.72;101414.47;5002575;28;20037;-74
2021/08/25 06:06:36;;;;;;;0.45;0.43;;;;;;;14.33;67.74;101418.38;5000373;28;20038;-74
2021/08/25 06:09:04;;;;;;;0.32;0.32;;;;;;;14.36;68.24;101412.34;5000588;28;20036;-76
2021/08/25 06:11:32;;;;;;;0.47;0.47;;;;;;;14.52;68.05;101426.19;5015684;28;20076;-76
2021/08/25 06:13:58;;;;;;;0.52;0.52;;;;;;;14.53;67.88;101416.81;5015332;28;20034;-75
2021/08/25 06:16:26;;;;;;;0.45;0.45;;;;;;;14.63;68.49;101425.13;5019796;28;20022;-75
2021/08/25 06:18:53;;;;;;;0.52;0.52;;;;;;;14.70;67.85;101417.47;4999855;28;20394;-75
2021/08/25 06:21:19;;;;;;;0.52;0.40;;;;;;;14.86;68.00;101426.59;4987465;28;20056;-74
2021/08/25 06:23:52;;;;;;;0.32;0.25;;;;;;;14.96;68.19;101423.06;4986249;28;20476;-77
2021/08/25 06:26:30;;;;;;;;;;;;;;;;;;;;;
2021/08/25 06:28:59;;;;;;;0.32;0.32;;;;;;;15.12;67.76;101424.75;5021539;28;20085;-76
2021/08/25 06:35:20;;;;;;;0.50;0.50;;;;;;;15.37;67.46;101412.09;5019879;28;20044;-77
2021/08/25 06:37:49;;;;;;;0.45;0.40;;;;;;;15.54;67.75;101420.94;4987293;28;20424;-75
2021/08/25 06:40:17;;;;;;;0.40;0.40;;;;;;;15.54;67.72;101409.09;4993391;28;20049;-76
2021/08/25 06:42:55;;;;;;;;;;;;;;;;;;;;;
2021/08/25 06:45:31;;;;;;;0.40;0.40;;;;;;;15.61;67.29;101389.50;5017726;28;20109;-74
2021/08/25 06:48:22;;;;;;;;;;;;;;;;;;;;;
2021/08/25 06:50:50;;;;;;;0.45;0.45;;;;;;;15.93;66.45;101410.47;5013873;28;19984;-73
2021/08/25 06:53:29;;;;;;;0.50;0.50;;;;;;;16.12;66.77;101419.84;5010647;28;20030;-75
2021/08/25 06:55:55;;;;;;;0.30;0.30;;;;;;;16.12;66.45;101396.91;4999317;28;20030;-73
2021/08/25 06:58:20;;;;;;;2.53;0.38;;;;;;;16.27;66.69;101409.88;5017850;28;20346;-73
2021/08/25 07:00:49;;;;;;;0.40;0.40;;;;;;;16.39;66.20;101424.16;5004960;28;20034;-74
2021/08/25 07:03:18;;;;;;;0.60;0.60;;;;;;;16.42;66.04;101412.56;5004852;28;20033;-74
2021/08/25 07:05:44;;;;;;;2.53;0.93;;;;;;;16.50;66.19;101422.19;4987975;28;20029;-72
2021/08/25 07:08:09;;;;;;;1.17;1.08;;;;;;;16.56;65.73;101412.78;4982687;28;20030;-74
2021/08/25 07:11:06;;;;;;;;;;;;;;;;;;;;;
2021/08/25 07:14:28;;;;;;;;;;;;;;;;;;;;;
2021/08/25 07:17:34;;;;;;;4.70;1.02;;;;;;;16.80;65.84;101401.91;4928368;29;20124;-74
2021/08/25 07:20:37;;;;;;;1.08;0.98;;;;;;;16.89;66.03;101411.28;4935870;29;20413;-74
2021/08/25 07:23:48;;;;;;;2.38;1.20;;;;;;;16.92;66.02;101399.66;4892256;29;20032;-73
2021/08/25 07:26:41;;;;;;;2.50;0.95;;;;;;;17.06;66.16;101399.03;4900273;29;20052;-73
2021/08/25 07:52:09;;;;;;;;;;;;;;;;;;;;;
2021/08/25 07:56:09;;;;;;;;;;;;;;;;;;;;;
2021/08/25 07:58:06;;;;;;;1.02;0.73;;;;;;;18.76;62.19;101389.91;4998053;28;20033;-73
2021/08/25 08:07:10;;;;;;;;;;;;;;;;;;;;;
2021/08/25 08:10:31;;;;;;;;;;;;;;;;;;;;;
2021/08/25 08:16:49;;;;;;;;;;;;;;;;;;;;;
2021/08/25 08:22:10;;;;;;;0.85;0.40;;;;;;;20.29;57.32;101397.97;5014332;28;20525;-74
2021/08/25 08:24:40;;;;;;;0.55;0.28;;;;;;;20.46;56.49;101402.88;5017174;28;20121;-75
2021/08/25 08:33:13;;;;;;;3.10;0.30;;;;;;;20.43;55.01;101378.50;5008636;28;20097;-77
2021/08/25 08:35:56;;;;;;;0.40;0.32;;;;;;;20.60;54.57;101406.47;5015702;28;20033;-76
2021/08/25 08:38:37;;;;;;;;;;;;;;;;;;;;;
2021/08/25 08:41:19;;;;;;;0.38;0.30;;;;;;;20.71;53.99;101384.88;5013713;28;20086;-76
2021/08/25 08:44:04;;;;;;;;;;;;;;;;;;;;;
2021/08/25 08:46:33;;;;;;;0.30;0.30;;;;;;;20.90;53.56;101390.31;5008440;28;20202;-76
2021/08/25 08:49:18;;;;;;;0.50;0.40;;;;;;;20.90;52.66;101393.09;5017182;28;20045;-76
2021/08/25 08:51:56;;;;;;;0.43;0.38;;;;;;;20.85;52.06;101395.97;5026913;28;20038;-76
2021/08/25 08:54:25;;;;;;;0.32;0.32;;;;;;;20.92;51.86;101402.75;5014914;28;20042;-78
2021/08/25 08:57:05;;;;;;;;;;;;;;;;;;;;;
2021/08/25 08:59:52;;;;;;;;;;;;;;;;;;;;;
2021/08/25 09:02:53;;;;;;;;;;;;;;;;;;;;;
2021/08/25 09:05:30;;;;;;;0.45;0.30;;;;;;;21.87;50.41;101414.94;5020428;28;20105;-77
2021/08/25 09:08:13;;;;;;;0.40;0.35;;;;;;;22.12;49.71;101418.16;5009760;28;20530;-76
2021/08/25 09:11:09;;;;;;;0.68;0.50;;;;;;;22.18;49.09;101418.84;5006861;28;20030;-77
2021/08/25 09:14:18;;;;;;;0.40;0.30;;;;;;;22.14;48.16;101404.75;5005830;28;20053;-75
2021/08/25 09:16:44;;;;;;;0.85;0.45;;;;;;;22.33;48.08;101421.25;5008515;28;20041;-75
2021/08/25 09:19:16;;;;;;;0.40;0.30;;;;;;;22.53;48.28;101424.59;4982904;28;20026;-77
2021/08/25 09:21:52;;;;;;;0.65;0.65;;;;;;;22.69;47.97;101411.84;5010656;28;20049;-75
2021/08/25 09:24:23;;;;;;;1.50;0.40;;;;;;;22.82;47.60;101422.06;5001308;28;20447;-77
2021/08/25 09:27:08;;;;;;;1.42;0.57;;;;;;;22.96;46.94;101404.34;5018678;28;20030;-76
2021/08/25 09:29:37;;;;;;;0.20;0.20;;;;;;;23.11;46.29;101412.25;5011682;28;20173;-76
2021/08/25 09:32:03;;;;;;;0.25;0.20;;;;;;;23.36;46.71;101418.16;5031484;28;20484;-76
2021/08/25 09:34:34;;;;;;;0.38;0.38;;;;;;;23.53;45.82;101404.19;4998660;28;20032;-75
2021/08/25 09:37:17;;;;;;;0.93;0.30;;;;;;;23.59;44.89;101416.00;5010833;28;20030;-74
2021/08/25 09:39:44;;;;;;;0.45;0.40;;;;;;;23.47;44.43;101413.88;5010081;28;20026;-74
2021/08/25 09:42:11;;;;;;;0.60;0.40;;;;;;;23.32;44.55;101417.19;5012039;28;20060;-75
2021/08/25 09:44:37;;;;;;;0.52;0.40;;;;;;;23.60;45.23;101408.47;5013142;28;20080;-75
2021/08/25 09:47:03;;;;;;;0.30;0.30;;;;;;;24.12;45.66;101415.91;5014360;28;20038;-75
2021/08/25 09:49:30;;;;;;;0.45;0.38;;;;;;;24.67;45.33;101415.00;5008955;28;20040;-76
2021/08/25 09:51:56;;;;;;;0.35;0.30;;;;;;;25.20;43.83;101404.25;5002366;28;20036;-76
2021/08/25 09:54:26;;;;;;;0.52;0.52;;;;;;;25.70;43.81;101410.91;5011068;28;20499;-76
2021/08/25 09:57:04;;;;;;;0.50;0.35;;;;;;;26.08;41.65;101407.03;4989897;28;20096;-76
2021/08/25 09:59:32;;;;;;;4.63;0.60;;;;;;;26.19;39.61;101407.38;5010375;28;20060;-76
2021/08/25 10:02:02;;;;;;;0.73;0.50;;;;;;;26.11;39.71;101413.94;5000745;28;20360;-75
2021/08/25 10:04:34;;;;;;;0.95;0.50;;;;;;;26.14;39.87;101413.22;5007165;28;20038;-76
2021/08/25 10:07:01;;;;;;;0.38;0.30;;;;;;;26.11;39.36;101413.94;5011669;28;20688;-77
2021/08/25 10:09:28;;;;;;;0.63;0.40;;;;;;;25.98;38.86;101410.25;4990667;28;20365;-76
2021/08/25 10:11:57;;;;;;;1.60;0.47;;;;;;;25.94;39.33;101398.09;4997024;28;20088;-77
2021/08/25 10:14:23;;;;;;;0.52;0.40;;;;;;;26.28;39.96;101385.69;5016720;28;20492;-79
2021/08/25 10:16:52;;;;;;;0.40;0.40;;;;;;;26.88;38.85;101406.78;5005152;28;20034;-79
2021/08/25 10:19:38;;;;;;;0.60;0.60;;;;;;;27.27;38.18;101396.72;5015915;28;20030;-80
2021/08/25 10:22:09;;;;;;;0.47;0.40;;;;;;;27.55;38.59;101397.91;5018374;28;20041;-79
2021/08/25 10:24:53;;;;;;;0.38;0.38;;;;;;;29.23;40.04;101394.78;5012445;28;20038;-76
2021/08/25 10:27:24;;;;;;;0.60;0.57;;;;;;;30.21;36.20;101398.22;5008264;28;20032;-76
2021/08/25 10:30:04;;;;;;;0.50;0.50;;;;;;;31.02;35.32;101392.59;5010178;28;20065;-78
2021/08/25 10:36:47;;;;;;;0.32;0.32;;;;;;;33.75;32.32;101391.03;4978871;28;20038;-79
2021/08/25 10:39:48;;;;;;;;;;;;;;;;;;;;;
2021/08/25 10:42:17;;;;;;;0.60;0.40;;;;;;;33.33;29.28;101390.47;4997685;28;20140;-77
2021/08/25 10:49:06;;;;;;;0.35;0.30;;;;;;;33.94;29.66;101389.81;5016071;28;20050;-77
2021/08/25 10:58:01;;;;;;;0.30;0.30;;;;;;;36.80;25.63;101376.53;5173101;27;20064;-75
2021/08/25 11:00:44;;;;;;;0.40;0.40;;;;;;;38.07;26.76;101367.78;5155422;27;20102;-77
2021/08/25 11:10:08;;;;;;;0.20;0.20;;;;;;;42.45;21.85;101364.41;5022666;28;21445;-77
2021/08/25 11:12:33;;;;;;;0.20;0.13;;;;;;;43.57;21.87;101365.84;5031285;28;20033;-77
2021/08/25 11:15:08;;;;;;;0.25;0.20;;;;;;;44.48;19.64;101362.78;5044661;28;20045;-78
2021/08/25 11:20:37;;;;;;;0.30;0.30;;;;;;;44.66;17.67;101364.88;5037996;23;20512;-77
2021/08/25 11:23:02;;;;;;;0.30;0.30;;;;;;;44.92;17.34;101363.22;5007169;28;20042;-76
2021/08/25 11:25:29;;;;;;;0.10;0.10;;;;;;;44.81;17.35;101357.16;4991910;28;20456;-75
2021/08/25 11:28:04;;;;;;;0.30;0.20;;;;;;;44.57;16.82;101348.34;4975468;28;20562;-77
2021/08/25 11:34:49;;;;;;;;;;;;;;;;;;;;;
2021/08/25 11:45:08;;;;;;;0.22;0.20;;;;;;;47.83;15.11;101351.09;4894365;29;20124;-77
2021/08/25 12:08:13;;;;;;;0.10;0.10;;;;;;;52.20;11.39;101339.81;4787172;29;20045;-76
2021/08/25 12:10:57;;;;;;;0.20;0.20;;;;;;;52.48;10.58;101342.53;4813584;29;20034;-76
2021/08/25 12:13:38;;;;;;;0.20;0.20;;;;;;;52.70;10.09;101341.59;4922943;29;20128;-78
2021/08/25 12:16:30;;;;;;;1.63;0.20;;;;;;;52.96;9.95;101330.75;4943111;29;20048;-74
2021/08/25 12:19:05;;;;;;;1.25;0.40;;;;;;;52.74;9.27;101323.78;5022890;28;20099;-71
2021/08/25 12:21:35;;;;;;;0.20;0.20;;;;;;;52.06;9.70;101321.31;5033141;28;20038;-73
2021/08/25 12:24:14;;;;;;;4.88;0.30;;;;;;;51.20;9.67;101307.59;5034678;28;20087;-72
2021/08/25 12:26:56;;;;;;;0.22;0.20;;;;;;;50.98;10.12;101320.88;5017224;28;20026;-74
2021/08/25 12:29:33;;;;;;;0.20;0.20;;;;;;;50.76;10.06;101310.81;5016433;28;20033;-73
2021/08/25 12:32:00;;;;;;;0.40;0.30;;;;;;;48.44;9.67;101300.09;5025892;28;20041;-72
2021/08/25 12:34:33;;;;;;;0.20;0.20;;;;;;;46.89;11.19;101292.78;4998323;28;20029;-71
2021/08/25 12:37:01;;;;;;;0.30;0.22;;;;;;;47.09;11.66;101288.41;5031411;28;20037;-73
2021/08/25 12:39:29;;;;;;;0.47;0.30;;;;;;;46.40;11.56;101297.22;4999188;28;20041;-74
2021/08/25 12:41:56;;;;;;;0.30;0.30;;;;;;;45.41;11.69;101289.09;5028777;28;20024;-73
2021/08/25 12:44:22;;;;;;;0.30;0.28;;;;;;;43.67;12.34;101278.22;5022139;28;20032;-72
2021/08/25 12:46:59;;;;;;;0.40;0.40;;;;;;;42.54;13.33;101269.59;5028202;28;20084;-72
2021/08/25 12:49:29;;;;;;;0.43;0.40;;;;;;;43.18;13.59;101276.16;5027668;28;20045;-73
2021/08/25 12:52:05;;;;;;;0.30;0.30;;;;;;;44.06;13.57;101284.34;5028980;28;20037;-77
2021/08/25 12:54:30;;;;;;;0.43;0.20;;;;;;;45.34;12.75;101282.91;5015146;28;20021;-76
2021/08/25 12:56:59;;;;;;;0.32;0.20;;;;;;;46.68;12.34;101278.25;5022721;28;20021;-75
2021/08/25 12:59:24;;;;;;;0.40;0.40;;;;;;;47.96;11.59;101276.16;5013924;28;20089;-73
2021/08/25 13:01:50;;;;;;;0.20;0.20;;;;;;;48.98;11.00;101285.84;5011114;28;21327;-73
2021/08/25 13:04:15;;;;;;;3.50;0.20;;;;;;;50.06;10.96;101281.38;4958172;28;20050;-75
2021/08/25 13:06:41;;;;;;;0.30;0.30;;;;;;;51.19;10.39;101280.59;4970556;28;20019;-74
2021/08/25 13:09:07;;;;;;;0.20;0.10;;;;;;;51.49;10.07;101283.69;4970258;28;20026;-74
2021/08/25 13:11:43;;;;;;;0.30;0.30;;;;;;;51.24;9.68;101279.78;4984638;28;20113;-75
2021/08/25 13:14:08;;;;;;;0.10;0.10;;;;;;;51.63;9.29;101275.16;4966539;28;20015;-73
2021/08/25 13:16:34;;;;;;;0.20;0.20;;;;;;;51.96;9.27;101268.38;4968019;28;20026;-73
2021/08/25 13:18:59;;;;;;;0.35;0.30;;;;;;;52.35;8.39;101270.22;4969940;28;20034;-74
2021/08/25 13:27:57;;;;;;;0.10;0.10;;;;;;;50.01;9.28;101247.25;4964981;28;20034;-72
2021/08/25 13:30:46;;;;;;;0.10;0.10;;;;;;;51.34;9.43;101236.63;4996572;28;20013;-72
2021/08/25 13:33:39;;;;;;;0.15;0.15;;;;;;;52.15;9.19;101233.53;4994442;28;20030;-72
2021/08/25 13:36:23;;;;;;;0.20;0.20;;;;;;;52.38;8.24;101238.41;4986692;28;20124;-73
2021/08/25 13:38:54;;;;;;;0.20;0.20;;;;;;;52.53;8.25;101233.75;4993679;28;20053;-72
2021/08/25 15:22:12;;;;;;;0.20;0.08;;;;;;;50.57;7.82;101101.03;5689565;23;20056;-76
2021/08/25 15:24:38;;;;;;;0.10;0.10;;;;;;;50.25;7.77;101103.47;4948781;28;20027;-75
2021/08/25 15:27:03;;;;;;;0.10;0.10;;;;;;;49.98;8.49;101097.16;4940138;28;20031;-74
2021/08/25 15:29:36;;;;;;;0.10;0.10;;;;;;;49.82;8.24;101095.81;4933787;28;20027;-75
2021/08/25 15:32:05;;;;;;;0.90;0.10;;;;;;;49.66;8.34;101100.28;4951184;28;20031;-74
2021/08/25 15:34:30;;;;;;;0.25;0.20;;;;;;;49.36;8.21;101083.34;4941576;28;20042;-76
2021/08/25 15:36:56;;;;;;;0.15;0.15;;;;;;;49.03;8.37;101092.72;4950401;28;20023;-76
2021/08/25 15:39:24;;;;;;;0.10;0.10;;;;;;;48.59;8.70;101086.16;4949678;29;20027;-75
2021/08/25 15:41:52;;;;;;;0.20;0.20;;;;;;;48.32;8.91;101075.94;4965640;28;20039;-79
2021/08/25 15:44:19;;;;;;;0.25;0.17;;;;;;;48.50;8.91;101077.66;4939668;29;20851;-78
2021/08/25 15:46:50;;;;;;;0.20;0.10;;;;;;;48.31;9.11;101080.97;4954798;29;20082;-76
2021/08/25 15:49:15;;;;;;;2.38;0.43;;;;;;;47.94;9.20;101075.13;4932216;28;20063;-79
2021/08/25 15:51:44;;;;;;;0.10;0.10;;;;;;;47.51;9.23;101081.56;4939395;29;20082;-77
2021/08/25 15:54:36;;;;;;;0.10;0.10;;;;;;;46.82;9.55;101077.03;4958282;28;20403;-80
2021/08/25 15:57:22;;;;;;;0.10;0.10;;;;;;;46.50;10.22;101076.84;4955641;28;20027;-78
2021/08/25 15:59:54;;;;;;;0.10;0.10;;;;;;;46.44;10.28;101075.16;4963457;29;20015;-77
2021/08/25 16:02:32;;;;;;;3.13;0.20;;;;;;;46.13;10.37;101077.31;4957733;28;20297;-78
2021/08/25 16:05:33;;;;;;;0.20;0.10;;;;;;;46.03;10.39;101080.81;4946067;29;20047;-79
2021/08/25 16:08:11;;;;;;;0.13;0.13;;;;;;;45.76;10.45;101076.94;5374787;23;20047;-79
2021/08/25 16:10:37;;;;;;;0.10;0.10;;;;;;;45.45;10.64;101078.22;4960869;28;20750;-78
2021/08/25 16:13:05;;;;;;;0.20;0.20;;;;;;;45.10;11.09;101073.03;4996009;28;20117;-79
2021/08/25 16:15:31;;;;;;;0.10;0.10;;;;;;;44.88;11.18;101067.59;4994386;28;20082;-78
2021/08/25 16:17:57;;;;;;;0.32;0.30;;;;;;;44.39;11.27;101075.38;4972838;28;20035;-77
2021/08/25 16:20:22;;;;;;;0.68;0.40;;;;;;;44.09;11.72;101078.03;4995137;28;20027;-78
2021/08/25 16:22:48;;;;;;;0.13;0.10;;;;;;;43.95;11.76;101072.97;4980177;28;20037;-79
2021/08/25 16:25:14;;;;;;;0.35;0.30;;;;;;;43.71;11.96;101065.00;4977836;28;20011;-77
2021/08/25 16:27:39;;;;;;;0.25;0.25;;;;;;;43.37;12.02;101059.13;4972673;28;20050;-78